Saluda, North Carolina
Current Conditions -  °F | °C
As of 7:54 AM on Wednesday 22 Oct 2014 (Local Time) from KAVL Reporting Station
Scattered Clouds Scattered Clouds  
Wind Chill: 41°   Ceiling: Unl
Heat Index: 45°   Visibility: 10mi
Dew Point: 35°   Wind: 8mph
Humidity: 68%   Direction: 330°NNW
Pressure: 30.1"   Gusts: NA
Location:  35.24°N, 82.35°W
Report Text: KAVL 221154Z 33007KT 10SM SCT037 07/02 A3010 RMK AO2 SLP185 T00720017 10083 20067 53013
Loading
Personal Weather Stations






























Interactive Weather Map
Tropical Storm Tracking
New forecast layout! Learn more

10-Day Weather Forecast

Advertisements
Track Severe Weather on mobile